sensor_id;sensor_type;location;lat;lon;timestamp;pressure;altitude;pressure_sealevel;temperature;humidity
46722;BME280;32455;43.430;23.136;2022-08-03T00:01:53;98049.28;;;22.58;48.29
46722;BME280;32455;43.430;23.136;2022-08-03T00:04:38;98056.59;;;22.62;48.09
46722;BME280;32455;43.430;23.136;2022-08-03T00:07:24;98048.88;;;22.37;48.93
46722;BME280;32455;43.430;23.136;2022-08-03T00:10:10;98024.31;;;21.99;50.12
46722;BME280;32455;43.430;23.136;2022-08-03T00:12:56;98043.97;;;22.01;50.18
46722;BME280;32455;43.430;23.136;2022-08-03T00:15:42;98054.72;;;21.97;50.92
46722;BME280;32455;43.430;23.136;2022-08-03T00:18:27;98047.03;;;21.99;50.25
46722;BME280;32455;43.430;23.136;2022-08-03T00:21:13;98055.50;;;22.17;49.66
46722;BME280;32455;43.430;23.136;2022-08-03T00:23:58;98040.75;;;22.32;48.70
46722;BME280;32455;43.430;23.136;2022-08-03T00:26:43;98049.56;;;22.42;48.58
46722;BME280;32455;43.430;23.136;2022-08-03T00:29:28;98042.69;;;22.31;48.77
46722;BME280;32455;43.430;23.136;2022-08-03T00:32:13;98044.56;;;22.31;48.37
46722;BME280;32455;43.430;23.136;2022-08-03T00:34:59;98047.63;;;22.43;47.93
46722;BME280;32455;43.430;23.136;2022-08-03T00:37:44;98037.00;;;22.41;47.73
46722;BME280;32455;43.430;23.136;2022-08-03T00:40:29;98036.78;;;22.38;48.03
46722;BME280;32455;43.430;23.136;2022-08-03T00:43:15;98042.97;;;22.43;48.13
46722;BME280;32455;43.430;23.136;2022-08-03T00:46:01;98052.31;;;22.42;48.30
46722;BME280;32455;43.430;23.136;2022-08-03T00:48:49;98055.63;;;22.39;48.37
46722;BME280;32455;43.430;23.136;2022-08-03T00:51:35;98055.63;;;22.39;48.05
46722;BME280;32455;43.430;23.136;2022-08-03T00:54:21;98060.72;;;22.32;48.58
46722;BME280;32455;43.430;23.136;2022-08-03T00:57:07;98050.06;;;22.31;48.21
46722;BME280;32455;43.430;23.136;2022-08-03T00:59:53;98055.34;;;22.27;48.31
46722;BME280;32455;43.430;23.136;2022-08-03T01:02:39;98053.00;;;22.34;48.33
46722;BME280;32455;43.430;23.136;2022-08-03T01:05:25;98057.78;;;22.29;48.02
46722;BME280;32455;43.430;23.136;2022-08-03T01:08:36;98050.38;;;22.29;48.36
46722;BME280;32455;43.430;23.136;2022-08-03T01:14:12;98058.91;;;22.09;49.06
46722;BME280;32455;43.430;23.136;2022-08-03T01:17:13;98058.63;;;22.10;49.06
46722;BME280;32455;43.430;23.136;2022-08-03T01:20:09;98060.94;;;22.03;49.42
46722;BME280;32455;43.430;23.136;2022-08-03T01:26:20;98059.94;;;21.80;50.27
46722;BME280;32455;43.430;23.136;2022-08-03T01:32:27;98061.53;;;21.48;51.47
46722;BME280;32455;43.430;23.136;2022-08-03T01:35:38;98044.56;;;21.33;51.74
46722;BME280;32455;43.430;23.136;2022-08-03T01:38:40;98054.38;;;21.10;53.17
46722;BME280;32455;43.430;23.136;2022-08-03T01:41:32;98061.28;;;21.07;53.15
46722;BME280;32455;43.430;23.136;2022-08-03T01:44:18;98051.91;;;20.89;53.67
46722;BME280;32455;43.430;23.136;2022-08-03T01:47:05;98054.16;;;20.87;54.40
46722;BME280;32455;43.430;23.136;2022-08-03T01:49:52;98055.78;;;20.64;54.96
46722;BME280;32455;43.430;23.136;2022-08-03T01:52:41;98059.16;;;20.56;55.27
46722;BME280;32455;43.430;23.136;2022-08-03T01:55:28;98041.00;;;20.41;55.92
46722;BME280;32455;43.430;23.136;2022-08-03T01:58:16;98038.19;;;20.22;56.41
46722;BME280;32455;43.430;23.136;2022-08-03T02:01:04;98054.19;;;20.34;56.56
46722;BME280;32455;43.430;23.136;2022-08-03T02:03:51;98068.97;;;20.28;57.23
46722;BME280;32455;43.430;23.136;2022-08-03T02:06:38;98061.50;;;20.10;58.25
46722;BME280;32455;43.430;23.136;2022-08-03T02:09:25;98059.09;;;20.03;58.68
46722;BME280;32455;43.430;23.136;2022-08-03T02:12:13;98043.34;;;20.00;58.55
46722;BME280;32455;43.430;23.136;2022-08-03T02:15:00;98066.47;;;20.02;59.55
46722;BME280;32455;43.430;23.136;2022-08-03T02:17:47;98062.19;;;19.96;59.09
46722;BME280;32455;43.430;23.136;2022-08-03T02:20:33;98061.94;;;19.54;60.42
46722;BME280;32455;43.430;23.136;2022-08-03T02:23:21;98049.81;;;19.31;60.83
46722;BME280;32455;43.430;23.136;2022-08-03T02:26:10;98048.19;;;19.30;62.33
46722;BME280;32455;43.430;23.136;2022-08-03T02:29:02;98058.72;;;19.46;61.11
46722;BME280;32455;43.430;23.136;2022-08-03T02:31:50;98059.16;;;19.19;61.71
46722;BME280;32455;43.430;23.136;2022-08-03T02:34:37;98061.78;;;19.35;61.50
46722;BME280;32455;43.430;23.136;2022-08-03T02:37:27;98065.09;;;19.26;62.12
46722;BME280;32455;43.430;23.136;2022-08-03T02:40:17;98056.28;;;18.95;63.10
46722;BME280;32455;43.430;23.136;2022-08-03T02:43:07;98063.97;;;18.83;63.82
46722;BME280;32455;43.430;23.136;2022-08-03T02:45:53;98062.31;;;18.87;63.38
46722;BME280;32455;43.430;23.136;2022-08-03T02:48:40;98059.88;;;18.86;63.81
46722;BME280;32455;43.430;23.136;2022-08-03T02:51:29;98061.97;;;19.04;63.17
46722;BME280;32455;43.430;23.136;2022-08-03T02:54:17;98063.34;;;19.01;62.74
46722;BME280;32455;43.430;23.136;2022-08-03T02:57:06;98057.91;;;19.01;62.96
46722;BME280;32455;43.430;23.136;2022-08-03T02:59:54;98063.41;;;18.86;63.73
46722;BME280;32455;43.430;23.136;2022-08-03T03:02:40;98077.28;;;18.90;63.12
46722;BME280;32455;43.430;23.136;2022-08-03T03:05:27;98074.84;;;18.83;63.74
46722;BME280;32455;43.430;23.136;2022-08-03T03:08:14;98068.03;;;18.86;63.49
46722;BME280;32455;43.430;23.136;2022-08-03T03:11:00;98057.50;;;18.64;64.03
46722;BME280;32455;43.430;23.136;2022-08-03T03:13:48;98080.06;;;18.64;64.42
46722;BME280;32455;43.430;23.136;2022-08-03T03:16:34;98077.56;;;18.83;63.86
46722;BME280;32455;43.430;23.136;2022-08-03T03:19:20;98085.72;;;18.88;63.43
46722;BME280;32455;43.430;23.136;2022-08-03T03:22:07;98083.56;;;18.85;63.90
46722;BME280;32455;43.430;23.136;2022-08-03T03:24:53;98097.00;;;18.46;65.32
46722;BME280;32455;43.430;23.136;2022-08-03T03:27:40;98096.72;;;18.32;66.54
46722;BME280;32455;43.430;23.136;2022-08-03T03:30:26;98102.47;;;18.25;67.19
46722;BME280;32455;43.430;23.136;2022-08-03T03:33:12;98097.03;;;18.31;66.72
46722;BME280;32455;43.430;23.136;2022-08-03T03:35:58;98098.63;;;18.37;66.41
46722;BME280;32455;43.430;23.136;2022-08-03T03:38:44;98087.50;;;18.28;66.43
46722;BME280;32455;43.430;23.136;2022-08-03T03:41:29;98088.06;;;18.25;66.98
46722;BME280;32455;43.430;23.136;2022-08-03T03:44:15;98098.38;;;18.33;67.17
46722;BME280;32455;43.430;23.136;2022-08-03T03:47:01;98103.28;;;18.26;67.71
46722;BME280;32455;43.430;23.136;2022-08-03T03:49:47;98094.88;;;18.17;67.98
46722;BME280;32455;43.430;23.136;2022-08-03T03:52:33;98103.53;;;18.40;67.03
46722;BME280;32455;43.430;23.136;2022-08-03T03:55:18;98108.38;;;18.68;66.42
46722;BME280;32455;43.430;23.136;2022-08-03T03:58:03;98112.19;;;18.72;66.33
46722;BME280;32455;43.430;23.136;2022-08-03T04:00:49;98112.38;;;18.91;65.95
46722;BME280;32455;43.430;23.136;2022-08-03T04:03:35;98116.66;;;19.13;65.60
46722;BME280;32455;43.430;23.136;2022-08-03T04:06:21;98114.94;;;19.32;65.21
46722;BME280;32455;43.430;23.136;2022-08-03T04:09:25;98120.84;;;19.49;64.21
46722;BME280;32455;43.430;23.136;2022-08-03T04:12:30;98123.50;;;19.99;63.01
46722;BME280;32455;43.430;23.136;2022-08-03T04:15:19;98112.63;;;20.28;61.99
46722;BME280;32455;43.430;23.136;2022-08-03T04:18:09;98116.53;;;20.51;61.57
46722;BME280;32455;43.430;23.136;2022-08-03T04:20:59;98129.28;;;20.61;61.34
46722;BME280;32455;43.430;23.136;2022-08-03T04:23:50;98125.38;;;20.67;62.08
46722;BME280;32455;43.430;23.136;2022-08-03T04:26:38;98128.84;;;20.72;61.73
46722;BME280;32455;43.430;23.136;2022-08-03T04:29:25;98124.22;;;20.73;63.37
46722;BME280;32455;43.430;23.136;2022-08-03T04:32:13;98146.19;;;20.87;62.80
46722;BME280;32455;43.430;23.136;2022-08-03T04:34:59;98138.88;;;20.82;63.33
46722;BME280;32455;43.430;23.136;2022-08-03T04:37:47;98147.56;;;20.84;63.18
46722;BME280;32455;43.430;23.136;2022-08-03T04:40:34;98143.06;;;20.98;62.91
46722;BME280;32455;43.430;23.136;2022-08-03T04:43:21;98141.94;;;20.99;62.69
46722;BME280;32455;43.430;23.136;2022-08-03T04:46:08;98149.53;;;21.02;63.08
46722;BME280;32455;43.430;23.136;2022-08-03T04:48:55;98147.69;;;20.98;60.92
46722;BME280;32455;43.430;23.136;2022-08-03T04:51:41;98153.66;;;21.24;61.72
46722;BME280;32455;43.430;23.136;2022-08-03T04:54:27;98149.31;;;21.23;61.36
46722;BME280;32455;43.430;23.136;2022-08-03T04:57:12;98155.78;;;21.32;60.46
46722;BME280;32455;43.430;23.136;2022-08-03T04:59:58;98152.38;;;21.40;60.72
46722;BME280;32455;43.430;23.136;2022-08-03T05:02:43;98166.75;;;21.51;60.21
46722;BME280;32455;43.430;23.136;2022-08-03T05:05:29;98155.59;;;21.47;60.95
46722;BME280;32455;43.430;23.136;2022-08-03T05:08:14;98156.94;;;21.50;60.83
46722;BME280;32455;43.430;23.136;2022-08-03T05:10:59;98152.03;;;21.47;61.12
46722;BME280;32455;43.430;23.136;2022-08-03T05:13:45;98171.25;;;21.61;60.29
46722;BME280;32455;43.430;23.136;2022-08-03T05:16:30;98176.53;;;21.76;57.87
46722;BME280;32455;43.430;23.136;2022-08-03T05:19:16;98173.19;;;21.98;57.14
46722;BME280;32455;43.430;23.136;2022-08-03T05:22:01;98186.59;;;22.18;57.32
46722;BME280;32455;43.430;23.136;2022-08-03T05:24:46;98190.28;;;22.28;56.03
46722;BME280;32455;43.430;23.136;2022-08-03T05:27:32;98185.88;;;22.45;54.93
46722;BME280;32455;43.430;23.136;2022-08-03T05:30:17;98190.31;;;22.41;53.83
46722;BME280;32455;43.430;23.136;2022-08-03T05:33:03;98185.78;;;22.50;54.19
46722;BME280;32455;43.430;23.136;2022-08-03T05:35:48;98180.44;;;22.59;54.72
46722;BME280;32455;43.430;23.136;2022-08-03T05:38:33;98197.56;;;22.65;53.67
46722;BME280;32455;43.430;23.136;2022-08-03T05:41:19;98196.16;;;22.67;54.66
46722;BME280;32455;43.430;23.136;2022-08-03T05:44:05;98193.00;;;22.60;53.66
46722;BME280;32455;43.430;23.136;2022-08-03T05:46:51;98213.19;;;22.64;53.05
46722;BME280;32455;43.430;23.136;2022-08-03T05:49:36;98202.94;;;22.56;53.17
46722;BME280;32455;43.430;23.136;2022-08-03T05:52:21;98202.09;;;22.88;52.33
46722;BME280;32455;43.430;23.136;2022-08-03T05:55:07;98200.16;;;22.89;52.33
46722;BME280;32455;43.430;23.136;2022-08-03T05:57:53;98191.75;;;22.85;53.12
46722;BME280;32455;43.430;23.136;2022-08-03T06:00:39;98198.16;;;22.94;52.71
46722;BME280;32455;43.430;23.136;2022-08-03T06:03:26;98207.63;;;23.16;52.22
46722;BME280;32455;43.430;23.136;2022-08-03T06:06:12;98208.75;;;23.15;52.83
46722;BME280;32455;43.430;23.136;2022-08-03T06:08:56;98216.38;;;23.18;52.83
46722;BME280;32455;43.430;23.136;2022-08-03T06:11:41;98213.31;;;23.19;51.98
46722;BME280;32455;43.430;23.136;2022-08-03T06:14:26;98215.16;;;23.24;51.57
46722;BME280;32455;43.430;23.136;2022-08-03T06:17:12;98213.63;;;23.32;51.85
46722;BME280;32455;43.430;23.136;2022-08-03T06:19:57;98228.25;;;23.55;51.46
46722;BME280;32455;43.430;23.136;2022-08-03T06:22:43;98216.56;;;23.49;50.71
46722;BME280;32455;43.430;23.136;2022-08-03T06:25:28;98215.75;;;23.62;52.42
46722;BME280;32455;43.430;23.136;2022-08-03T06:28:14;98223.56;;;23.83;50.63
46722;BME280;32455;43.430;23.136;2022-08-03T06:31:02;98223.38;;;23.79;50.56
46722;BME280;32455;43.430;23.136;2022-08-03T06:33:47;98223.97;;;23.90;50.72
46722;BME280;32455;43.430;23.136;2022-08-03T06:36:32;98236.31;;;24.01;49.81
46722;BME280;32455;43.430;23.136;2022-08-03T06:39:17;98228.69;;;23.98;49.73
46722;BME280;32455;43.430;23.136;2022-08-03T06:42:04;98226.34;;;24.05;49.81
46722;BME280;32455;43.430;23.136;2022-08-03T06:44:50;98227.94;;;24.20;49.39
46722;BME280;32455;43.430;23.136;2022-08-03T06:47:36;98238.22;;;24.14;48.71
46722;BME280;32455;43.430;23.136;2022-08-03T06:50:21;98229.63;;;24.07;49.22
46722;BME280;32455;43.430;23.136;2022-08-03T06:53:07;98243.03;;;24.31;50.41
46722;BME280;32455;43.430;23.136;2022-08-03T06:55:56;98239.28;;;24.41;48.97
46722;BME280;32455;43.430;23.136;2022-08-03T06:58:41;98241.28;;;24.49;49.24
46722;BME280;32455;43.430;23.136;2022-08-03T07:01:28;98238.84;;;24.70;48.90
46722;BME280;32455;43.430;23.136;2022-08-03T07:04:14;98249.88;;;24.79;48.52
46722;BME280;32455;43.430;23.136;2022-08-03T07:06:59;98233.72;;;24.77;48.65
46722;BME280;32455;43.430;23.136;2022-08-03T07:09:45;98229.88;;;24.87;49.00
46722;BME280;32455;43.430;23.136;2022-08-03T07:12:33;98236.19;;;25.10;48.94
46722;BME280;32455;43.430;23.136;2022-08-03T07:15:18;98243.16;;;25.16;49.72
46722;BME280;32455;43.430;23.136;2022-08-03T07:18:04;98255.34;;;25.23;48.85
46722;BME280;32455;43.430;23.136;2022-08-03T07:20:50;98249.88;;;25.01;48.91
46722;BME280;32455;43.430;23.136;2022-08-03T07:23:36;98253.38;;;25.15;49.17
46722;BME280;32455;43.430;23.136;2022-08-03T07:26:21;98251.94;;;25.27;49.32
46722;BME280;32455;43.430;23.136;2022-08-03T07:29:07;98259.59;;;25.38;49.19
46722;BME280;32455;43.430;23.136;2022-08-03T07:31:52;98256.22;;;25.41;49.13
46722;BME280;32455;43.430;23.136;2022-08-03T07:34:38;98254.13;;;25.78;48.61
46722;BME280;32455;43.430;23.136;2022-08-03T07:37:23;98253.66;;;25.93;48.62
46722;BME280;32455;43.430;23.136;2022-08-03T07:40:09;98261.44;;;26.00;48.48
46722;BME280;32455;43.430;23.136;2022-08-03T07:42:55;98277.47;;;26.07;48.77
46722;BME280;32455;43.430;23.136;2022-08-03T07:45:42;98278.88;;;25.78;49.33
46722;BME280;32455;43.430;23.136;2022-08-03T07:48:27;98272.25;;;25.88;49.47
46722;BME280;32455;43.430;23.136;2022-08-03T07:51:11;98276.81;;;26.01;49.29
46722;BME280;32455;43.430;23.136;2022-08-03T07:53:56;98281.38;;;26.06;49.89
46722;BME280;32455;43.430;23.136;2022-08-03T07:56:41;98278.63;;;26.23;48.78
46722;BME280;32455;43.430;23.136;2022-08-03T07:59:27;98286.72;;;26.11;49.43
46722;BME280;32455;43.430;23.136;2022-08-03T08:02:13;98295.22;;;26.49;48.76
46722;BME280;32455;43.430;23.136;2022-08-03T08:04:58;98293.41;;;26.44;48.20
46722;BME280;32455;43.430;23.136;2022-08-03T08:07:44;98292.22;;;26.11;49.17
46722;BME280;32455;43.430;23.136;2022-08-03T08:10:30;98299.22;;;26.34;49.38
46722;BME280;32455;43.430;23.136;2022-08-03T08:13:16;98298.59;;;26.46;48.26
46722;BME280;32455;43.430;23.136;2022-08-03T08:16:02;98304.44;;;26.62;48.45
46722;BME280;32455;43.430;23.136;2022-08-03T08:18:48;98302.19;;;26.73;48.73
46722;BME280;32455;43.430;23.136;2022-08-03T08:21:33;98298.44;;;26.86;49.00
46722;BME280;32455;43.430;23.136;2022-08-03T08:24:18;98297.91;;;26.92;48.53
46722;BME280;32455;43.430;23.136;2022-08-03T08:27:04;98307.81;;;26.93;48.26
46722;BME280;32455;43.430;23.136;2022-08-03T08:29:49;98301.53;;;26.67;49.27
46722;BME280;32455;43.430;23.136;2022-08-03T08:32:37;98313.00;;;26.95;47.39
46722;BME280;32455;43.430;23.136;2022-08-03T08:35:22;98305.91;;;26.51;49.12
46722;BME280;32455;43.430;23.136;2022-08-03T08:38:08;98293.09;;;26.55;48.26
46722;BME280;32455;43.430;23.136;2022-08-03T08:40:55;98314.47;;;27.01;47.53
46722;BME280;32455;43.430;23.136;2022-08-03T08:43:42;98306.38;;;26.79;48.39
46722;BME280;32455;43.430;23.136;2022-08-03T08:46:31;98295.00;;;26.97;47.58
46722;BME280;32455;43.430;23.136;2022-08-03T08:49:20;98307.63;;;27.25;46.49
46722;BME280;32455;43.430;23.136;2022-08-03T08:52:07;98311.78;;;27.39;45.73
46722;BME280;32455;43.430;23.136;2022-08-03T08:54:57;98304.38;;;27.05;46.85
46722;BME280;32455;43.430;23.136;2022-08-03T08:57:55;98299.16;;;27.38;45.86
46722;BME280;32455;43.430;23.136;2022-08-03T09:00:46;98286.22;;;27.13;46.27
46722;BME280;32455;43.430;23.136;2022-08-03T09:03:35;98293.47;;;27.35;45.92
46722;BME280;32455;43.430;23.136;2022-08-03T09:06:22;98298.50;;;27.41;46.49
46722;BME280;32455;43.430;23.136;2022-08-03T09:09:07;98288.59;;;27.70;46.33
46722;BME280;32455;43.430;23.136;2022-08-03T09:11:53;98295.38;;;27.90;45.30
46722;BME280;32455;43.430;23.136;2022-08-03T09:14:38;98282.59;;;27.77;45.10
46722;BME280;32455;43.430;23.136;2022-08-03T09:17:24;98282.16;;;27.95;45.12
46722;BME280;32455;43.430;23.136;2022-08-03T09:20:10;98291.66;;;27.86;45.42
46722;BME280;32455;43.430;23.136;2022-08-03T09:22:57;98282.72;;;27.89;45.73
46722;BME280;32455;43.430;23.136;2022-08-03T09:25:43;98290.56;;;27.69;45.51
46722;BME280;32455;43.430;23.136;2022-08-03T09:28:34;98279.31;;;27.83;45.27
46722;BME280;32455;43.430;23.136;2022-08-03T09:31:29;98279.44;;;28.16;45.22
46722;BME280;32455;43.430;23.136;2022-08-03T09:34:16;98272.63;;;27.93;46.13
46722;BME280;32455;43.430;23.136;2022-08-03T09:37:12;98282.69;;;27.51;45.90
46722;BME280;32455;43.430;23.136;2022-08-03T09:40:02;98274.19;;;27.64;46.39
46722;BME280;32455;43.430;23.136;2022-08-03T09:42:57;98272.78;;;27.58;46.50
46722;BME280;32455;43.430;23.136;2022-08-03T09:45:42;98268.84;;;27.98;46.17
46722;BME280;32455;43.430;23.136;2022-08-03T09:48:30;98280.63;;;28.36;45.49
46722;BME280;32455;43.430;23.136;2022-08-03T09:51:16;98275.44;;;28.26;43.62
46722;BME280;32455;43.430;23.136;2022-08-03T09:54:03;98265.94;;;28.44;41.64
46722;BME280;32455;43.430;23.136;2022-08-03T09:56:49;98266.94;;;28.40;42.97
46722;BME280;32455;43.430;23.136;2022-08-03T09:59:35;98263.41;;;28.52;42.86
46722;BME280;32455;43.430;23.136;2022-08-03T10:02:24;98259.75;;;28.60;41.81
46722;BME280;32455;43.430;23.136;2022-08-03T10:05:11;98257.41;;;28.70;41.95
46722;BME280;32455;43.430;23.136;2022-08-03T10:07:57;98262.69;;;28.97;42.96
46722;BME280;32455;43.430;23.136;2022-08-03T10:10:43;98255.91;;;29.06;42.52
46722;BME280;32455;43.430;23.136;2022-08-03T10:13:30;98258.72;;;29.18;42.78
46722;BME280;32455;43.430;23.136;2022-08-03T10:16:17;98244.28;;;29.13;41.43
46722;BME280;32455;43.430;23.136;2022-08-03T10:19:04;98248.00;;;29.29;41.87
46722;BME280;32455;43.430;23.136;2022-08-03T10:21:54;98238.78;;;29.37;42.93
46722;BME280;32455;43.430;23.136;2022-08-03T10:24:57;98237.41;;;29.31;42.89
46722;BME280;32455;43.430;23.136;2022-08-03T10:27:46;98225.84;;;29.41;42.51
46722;BME280;32455;43.430;23.136;2022-08-03T10:30:32;98231.91;;;29.56;42.10
46722;BME280;32455;43.430;23.136;2022-08-03T10:33:20;98235.25;;;29.74;41.97
46722;BME280;32455;43.430;23.136;2022-08-03T10:36:07;98239.59;;;29.87;40.42
46722;BME280;32455;43.430;23.136;2022-08-03T10:38:53;98233.94;;;29.96;41.54
46722;BME280;32455;43.430;23.136;2022-08-03T10:41:42;98229.88;;;30.05;40.39
46722;BME280;32455;43.430;23.136;2022-08-03T10:44:36;98220.44;;;29.33;40.81
46722;BME280;32455;43.430;23.136;2022-08-03T10:47:23;98231.19;;;29.71;40.57
46722;BME280;32455;43.430;23.136;2022-08-03T10:50:08;98222.97;;;29.50;40.39
46722;BME280;32455;43.430;23.136;2022-08-03T10:53:00;98222.16;;;29.99;38.80
46722;BME280;32455;43.430;23.136;2022-08-03T10:55:53;98233.00;;;30.04;38.55
46722;BME280;32455;43.430;23.136;2022-08-03T10:58:57;98207.44;;;30.10;38.50
46722;BME280;32455;43.430;23.136;2022-08-03T11:01:56;98228.94;;;30.26;38.80
46722;BME280;32455;43.430;23.136;2022-08-03T11:04:41;98220.97;;;30.12;37.97
46722;BME280;32455;43.430;23.136;2022-08-03T11:07:31;98223.47;;;30.41;37.73
46722;BME280;32455;43.430;23.136;2022-08-03T11:10:31;98212.56;;;30.21;37.33
46722;BME280;32455;43.430;23.136;2022-08-03T11:13:20;98203.69;;;30.43;38.56
46722;BME280;32455;43.430;23.136;2022-08-03T11:16:19;98210.84;;;30.44;38.46
46722;BME280;32455;43.430;23.136;2022-08-03T11:19:07;98196.38;;;30.10;37.20
46722;BME280;32455;43.430;23.136;2022-08-03T11:21:54;98209.38;;;30.34;37.00
46722;BME280;32455;43.430;23.136;2022-08-03T11:27:33;98196.22;;;30.59;37.08
46722;BME280;32455;43.430;23.136;2022-08-03T11:33:03;98183.94;;;30.73;34.34
46722;BME280;32455;43.430;23.136;2022-08-03T11:35:59;98190.75;;;30.91;33.78
46722;BME280;32455;43.430;23.136;2022-08-03T11:39:13;98185.81;;;31.00;33.86
46722;BME280;32455;43.430;23.136;2022-08-03T11:41:58;98164.00;;;31.14;31.91
46722;BME280;32455;43.430;23.136;2022-08-03T11:44:44;98170.78;;;30.85;32.95
46722;BME280;32455;43.430;23.136;2022-08-03T11:47:30;98183.41;;;30.27;33.71
46722;BME280;32455;43.430;23.136;2022-08-03T11:50:15;98167.84;;;30.50;32.99
46722;BME280;32455;43.430;23.136;2022-08-03T11:53:06;98168.63;;;30.79;32.50
46722;BME280;32455;43.430;23.136;2022-08-03T11:55:50;98153.78;;;30.87;31.49
46722;BME280;32455;43.430;23.136;2022-08-03T11:58:37;98165.41;;;31.08;31.27
46722;BME280;32455;43.430;23.136;2022-08-03T12:01:30;98160.06;;;30.56;32.64
46722;BME280;32455;43.430;23.136;2022-08-03T12:04:14;98164.00;;;30.71;32.63
46722;BME280;32455;43.430;23.136;2022-08-03T12:07:00;98157.72;;;30.86;32.41
46722;BME280;32455;43.430;23.136;2022-08-03T12:13:07;98155.13;;;31.09;31.83
46722;BME280;32455;43.430;23.136;2022-08-03T12:15:56;98152.72;;;31.07;30.72
46722;BME280;32455;43.430;23.136;2022-08-03T12:18:42;98136.16;;;30.95;31.91
46722;BME280;32455;43.430;23.136;2022-08-03T12:21:28;98138.66;;;31.00;31.67
46722;BME280;32455;43.430;23.136;2022-08-03T12:24:13;98141.41;;;31.16;31.08
46722;BME280;32455;43.430;23.136;2022-08-03T12:26:58;98124.25;;;31.10;31.50
46722;BME280;32455;43.430;23.136;2022-08-03T12:29:42;98133.91;;;31.32;30.56
46722;BME280;32455;43.430;23.136;2022-08-03T12:32:33;98132.47;;;31.23;31.06
46722;BME280;32455;43.430;23.136;2022-08-03T12:35:23;98119.56;;;31.30;31.36
46722;BME280;32455;43.430;23.136;2022-08-03T12:38:10;98126.66;;;31.44;31.10
46722;BME280;32455;43.430;23.136;2022-08-03T12:41:04;98126.19;;;31.77;31.92
46722;BME280;32455;43.430;23.136;2022-08-03T12:43:50;98116.25;;;31.76;29.98
46722;BME280;32455;43.430;23.136;2022-08-03T12:46:38;98122.91;;;31.90;30.33
46722;BME280;32455;43.430;23.136;2022-08-03T12:49:24;98128.13;;;31.92;29.68
46722;BME280;32455;43.430;23.136;2022-08-03T12:52:10;98130.47;;;32.09;29.08
46722;BME280;32455;43.430;23.136;2022-08-03T12:54:57;98123.88;;;32.17;29.29
46722;BME280;32455;43.430;23.136;2022-08-03T12:57:43;98104.34;;;32.14;30.16
46722;BME280;32455;43.430;23.136;2022-08-03T13:00:28;98110.25;;;32.32;29.85
46722;BME280;32455;43.430;23.136;2022-08-03T13:03:14;98090.41;;;32.33;31.15
46722;BME280;32455;43.430;23.136;2022-08-03T13:05:59;98103.38;;;32.45;30.03
46722;BME280;32455;43.430;23.136;2022-08-03T13:08:45;98109.47;;;32.51;27.98
46722;BME280;32455;43.430;23.136;2022-08-03T13:11:32;98099.41;;;32.46;27.16
46722;BME280;32455;43.430;23.136;2022-08-03T13:14:20;98094.56;;;32.62;27.93
46722;BME280;32455;43.430;23.136;2022-08-03T13:17:05;98093.41;;;32.63;28.45
46722;BME280;32455;43.430;23.136;2022-08-03T13:19:51;98115.00;;;32.31;28.58
46722;BME280;32455;43.430;23.136;2022-08-03T13:22:37;98091.91;;;32.47;29.52
46722;BME280;32455;43.430;23.136;2022-08-03T13:25:23;98099.31;;;32.62;29.48
46722;BME280;32455;43.430;23.136;2022-08-03T13:28:08;98097.28;;;32.82;29.50
46722;BME280;32455;43.430;23.136;2022-08-03T13:30:53;98091.41;;;32.64;29.12
46722;BME280;32455;43.430;23.136;2022-08-03T13:33:39;98079.50;;;32.63;29.63
46722;BME280;32455;43.430;23.136;2022-08-03T13:36:24;98087.06;;;32.24;29.66
46722;BME280;32455;43.430;23.136;2022-08-03T13:39:10;98081.94;;;31.68;30.32
46722;BME280;32455;43.430;23.136;2022-08-03T13:41:55;98087.88;;;31.86;30.24
46722;BME280;32455;43.430;23.136;2022-08-03T13:44:41;98079.47;;;32.40;29.25
46722;BME280;32455;43.430;23.136;2022-08-03T13:47:27;98084.41;;;32.74;29.45
46722;BME280;32455;43.430;23.136;2022-08-03T13:50:12;98083.72;;;32.80;28.92
46722;BME280;32455;43.430;23.136;2022-08-03T13:52:59;98072.34;;;32.89;28.70
46722;BME280;32455;43.430;23.136;2022-08-03T13:55:44;98082.56;;;33.04;28.07
46722;BME280;32455;43.430;23.136;2022-08-03T13:58:29;98063.19;;;33.11;27.81
46722;BME280;32455;43.430;23.136;2022-08-03T14:01:15;98066.28;;;33.33;27.40
46722;BME280;32455;43.430;23.136;2022-08-03T14:04:01;98064.53;;;33.48;28.09
46722;BME280;32455;43.430;23.136;2022-08-03T14:06:47;98057.81;;;33.52;27.38
46722;BME280;32455;43.430;23.136;2022-08-03T14:09:33;98058.38;;;33.65;28.11
46722;BME280;32455;43.430;23.136;2022-08-03T14:12:18;98056.03;;;33.67;26.66
46722;BME280;32455;43.430;23.136;2022-08-03T14:15:04;98064.75;;;33.65;26.26
46722;BME280;32455;43.430;23.136;2022-08-03T14:17:53;98068.75;;;32.88;26.31
46722;BME280;32455;43.430;23.136;2022-08-03T14:20:39;98068.34;;;32.63;26.84
46722;BME280;32455;43.430;23.136;2022-08-03T14:23:24;98061.16;;;32.39;27.30
46722;BME280;32455;43.430;23.136;2022-08-03T14:26:10;98067.09;;;31.80;27.61
46722;BME280;32455;43.430;23.136;2022-08-03T14:28:55;98064.50;;;31.52;28.41
46722;BME280;32455;43.430;23.136;2022-08-03T14:31:40;98056.97;;;31.33;28.08
46722;BME280;32455;43.430;23.136;2022-08-03T14:34:26;98058.75;;;31.25;27.86
46722;BME280;32455;43.430;23.136;2022-08-03T14:37:11;98051.63;;;31.79;27.13
46722;BME280;32455;43.430;23.136;2022-08-03T14:39:57;98057.72;;;32.27;27.07
46722;BME280;32455;43.430;23.136;2022-08-03T14:42:42;98054.72;;;32.58;26.75
46722;BME280;32455;43.430;23.136;2022-08-03T14:45:28;98047.09;;;32.52;26.46
46722;BME280;32455;43.430;23.136;2022-08-03T14:48:14;98050.19;;;32.27;26.48
46722;BME280;32455;43.430;23.136;2022-08-03T14:50:59;98064.25;;;31.76;27.08
46722;BME280;32455;43.430;23.136;2022-08-03T14:53:45;98053.78;;;31.31;27.92